sensor_id;sensor_type;location;lat;lon;timestamp;temperature;humidity
23564;DHT22;11960;45.444;11.078;2022-07-01T00:01:27;28.50;63.40
23564;DHT22;11960;45.444;11.078;2022-07-01T00:03:30;28.50;63.50
23564;DHT22;11960;45.444;11.078;2022-07-01T00:05:33;28.50;63.60
23564;DHT22;11960;45.444;11.078;2022-07-01T00:07:35;28.40;63.50
23564;DHT22;11960;45.444;11.078;2022-07-01T00:09:38;28.40;63.50
23564;DHT22;11960;45.444;11.078;2022-07-01T00:11:42;28.40;63.70
23564;DHT22;11960;45.444;11.078;2022-07-01T00:13:44;28.40;63.70
23564;DHT22;11960;45.444;11.078;2022-07-01T00:15:47;28.30;63.80
23564;DHT22;11960;45.444;11.078;2022-07-01T00:17:50;28.30;64.10
23564;DHT22;11960;45.444;11.078;2022-07-01T00:19:55;28.30;64.30
23564;DHT22;11960;45.444;11.078;2022-07-01T00:21:58;28.30;64.60
23564;DHT22;11960;45.444;11.078;2022-07-01T00:24:04;28.30;64.60
23564;DHT22;11960;45.444;11.078;2022-07-01T00:26:07;28.30;64.60
23564;DHT22;11960;45.444;11.078;2022-07-01T00:28:10;28.30;64.70
23564;DHT22;11960;45.444;11.078;2022-07-01T00:30:13;28.30;64.70
23564;DHT22;11960;45.444;11.078;2022-07-01T00:32:17;28.30;65.30
23564;DHT22;11960;45.444;11.078;2022-07-01T00:34:20;28.30;65.50
23564;DHT22;11960;45.444;11.078;2022-07-01T00:36:22;28.30;65.10
23564;DHT22;11960;45.444;11.078;2022-07-01T00:38:31;28.20;64.90
23564;DHT22;11960;45.444;11.078;2022-07-01T00:40:37;28.10;64.70
23564;DHT22;11960;45.444;11.078;2022-07-01T00:42:40;28.10;64.80
23564;DHT22;11960;45.444;11.078;2022-07-01T00:44:44;28.00;64.80
23564;DHT22;11960;45.444;11.078;2022-07-01T00:46:50;28.00;64.70
23564;DHT22;11960;45.444;11.078;2022-07-01T00:48:55;28.00;64.90
23564;DHT22;11960;45.444;11.078;2022-07-01T00:50:59;28.00;64.80
23564;DHT22;11960;45.444;11.078;2022-07-01T00:53:02;28.00;64.90
23564;DHT22;11960;45.444;11.078;2022-07-01T00:55:09;27.90;65.00
23564;DHT22;11960;45.444;11.078;2022-07-01T00:57:12;27.90;64.90
23564;DHT22;11960;45.444;11.078;2022-07-01T00:59:15;27.80;64.80
23564;DHT22;11960;45.444;11.078;2022-07-01T01:01:18;27.80;64.80
23564;DHT22;11960;45.444;11.078;2022-07-01T01:03:22;27.80;65.20
23564;DHT22;11960;45.444;11.078;2022-07-01T01:05:25;27.80;65.10
23564;DHT22;11960;45.444;11.078;2022-07-01T01:07:28;27.80;65.10
23564;DHT22;11960;45.444;11.078;2022-07-01T01:09:32;27.80;65.50
23564;DHT22;11960;45.444;11.078;2022-07-01T01:11:35;27.80;66.40
23564;DHT22;11960;45.444;11.078;2022-07-01T01:13:38;27.80;66.50
23564;DHT22;11960;45.444;11.078;2022-07-01T01:15:41;27.80;66.80
23564;DHT22;11960;45.444;11.078;2022-07-01T01:17:43;27.80;67.00
23564;DHT22;11960;45.444;11.078;2022-07-01T01:19:46;27.80;67.00
23564;DHT22;11960;45.444;11.078;2022-07-01T01:21:49;27.70;67.00
23564;DHT22;11960;45.444;11.078;2022-07-01T01:23:51;27.70;66.90
23564;DHT22;11960;45.444;11.078;2022-07-01T01:25:55;27.70;67.00
23564;DHT22;11960;45.444;11.078;2022-07-01T01:27:59;27.60;67.00
23564;DHT22;11960;45.444;11.078;2022-07-01T01:30:02;27.60;67.10
23564;DHT22;11960;45.444;11.078;2022-07-01T01:32:07;27.60;67.00
23564;DHT22;11960;45.444;11.078;2022-07-01T01:34:09;27.60;67.10
23564;DHT22;11960;45.444;11.078;2022-07-01T01:36:12;27.50;66.90
23564;DHT22;11960;45.444;11.078;2022-07-01T01:38:15;27.50;67.10
23564;DHT22;11960;45.444;11.078;2022-07-01T01:40:17;27.50;67.30
23564;DHT22;11960;45.444;11.078;2022-07-01T01:42:20;27.50;67.50
23564;DHT22;11960;45.444;11.078;2022-07-01T01:44:23;27.40;67.80
23564;DHT22;11960;45.444;11.078;2022-07-01T01:46:26;27.40;68.10
23564;DHT22;11960;45.444;11.078;2022-07-01T01:48:31;27.30;68.30
23564;DHT22;11960;45.444;11.078;2022-07-01T01:50:34;27.30;68.70
23564;DHT22;11960;45.444;11.078;2022-07-01T01:52:37;27.30;68.60
23564;DHT22;11960;45.444;11.078;2022-07-01T01:54:45;27.30;68.70
23564;DHT22;11960;45.444;11.078;2022-07-01T01:56:52;27.20;68.90
23564;DHT22;11960;45.444;11.078;2022-07-01T01:58:54;27.20;69.10
23564;DHT22;11960;45.444;11.078;2022-07-01T02:00:57;27.20;69.20
23564;DHT22;11960;45.444;11.078;2022-07-01T02:02:59;27.20;69.40
23564;DHT22;11960;45.444;11.078;2022-07-01T02:05:04;27.20;69.30
23564;DHT22;11960;45.444;11.078;2022-07-01T02:07:07;27.20;69.40
23564;DHT22;11960;45.444;11.078;2022-07-01T02:09:10;27.10;69.30
23564;DHT22;11960;45.444;11.078;2022-07-01T02:11:12;27.10;69.50
23564;DHT22;11960;45.444;11.078;2022-07-01T02:13:15;27.10;69.60
23564;DHT22;11960;45.444;11.078;2022-07-01T02:15:17;27.10;69.60
23564;DHT22;11960;45.444;11.078;2022-07-01T02:17:20;27.10;69.80
23564;DHT22;11960;45.444;11.078;2022-07-01T02:19:23;27.00;69.90
23564;DHT22;11960;45.444;11.078;2022-07-01T02:21:26;27.00;70.10
23564;DHT22;11960;45.444;11.078;2022-07-01T02:23:28;27.00;70.20
23564;DHT22;11960;45.444;11.078;2022-07-01T02:25:35;27.00;70.20
23564;DHT22;11960;45.444;11.078;2022-07-01T02:27:37;27.00;70.40
23564;DHT22;11960;45.444;11.078;2022-07-01T02:29:40;27.00;70.60
23564;DHT22;11960;45.444;11.078;2022-07-01T02:31:44;26.90;70.60
23564;DHT22;11960;45.444;11.078;2022-07-01T02:33:47;27.00;70.90
23564;DHT22;11960;45.444;11.078;2022-07-01T02:35:50;26.90;70.90
23564;DHT22;11960;45.444;11.078;2022-07-01T02:37:53;26.90;70.90
23564;DHT22;11960;45.444;11.078;2022-07-01T02:39:56;26.80;71.00
23564;DHT22;11960;45.444;11.078;2022-07-01T02:41:58;26.80;71.10
23564;DHT22;11960;45.444;11.078;2022-07-01T02:44:19;26.80;71.10
23564;DHT22;11960;45.444;11.078;2022-07-01T02:46:22;26.80;71.00
23564;DHT22;11960;45.444;11.078;2022-07-01T02:48:25;26.80;71.00
23564;DHT22;11960;45.444;11.078;2022-07-01T02:50:28;26.80;71.10
23564;DHT22;11960;45.444;11.078;2022-07-01T02:52:32;26.80;71.10
23564;DHT22;11960;45.444;11.078;2022-07-01T02:54:36;26.80;71.20
23564;DHT22;11960;45.444;11.078;2022-07-01T02:56:39;26.80;71.30
23564;DHT22;11960;45.444;11.078;2022-07-01T02:58:42;26.80;71.30
23564;DHT22;11960;45.444;11.078;2022-07-01T03:00:44;26.70;71.00
23564;DHT22;11960;45.444;11.078;2022-07-01T03:02:47;26.80;70.10
23564;DHT22;11960;45.444;11.078;2022-07-01T03:04:51;26.80;69.10
23564;DHT22;11960;45.444;11.078;2022-07-01T03:06:54;26.80;68.10
23564;DHT22;11960;45.444;11.078;2022-07-01T03:08:57;26.80;67.30
23564;DHT22;11960;45.444;11.078;2022-07-01T03:11:00;26.80;67.10
23564;DHT22;11960;45.444;11.078;2022-07-01T03:13:02;26.80;66.40
23564;DHT22;11960;45.444;11.078;2022-07-01T03:17:10;26.80;65.90
23564;DHT22;11960;45.444;11.078;2022-07-01T03:19:13;26.90;65.80
23564;DHT22;11960;45.444;11.078;2022-07-01T03:21:16;26.80;65.00
23564;DHT22;11960;45.444;11.078;2022-07-01T03:23:18;26.80;64.70
23564;DHT22;11960;45.444;11.078;2022-07-01T03:25:21;26.80;64.60
23564;DHT22;11960;45.444;11.078;2022-07-01T03:27:24;26.90;64.60
23564;DHT22;11960;45.444;11.078;2022-07-01T03:29:27;26.90;64.40
23564;DHT22;11960;45.444;11.078;2022-07-01T03:31:29;26.90;64.10
23564;DHT22;11960;45.444;11.078;2022-07-01T03:33:34;26.90;64.20
23564;DHT22;11960;45.444;11.078;2022-07-01T03:35:36;26.90;64.00
23564;DHT22;11960;45.444;11.078;2022-07-01T03:37:39;26.90;63.70
23564;DHT22;11960;45.444;11.078;2022-07-01T03:39:42;26.90;63.40
23564;DHT22;11960;45.444;11.078;2022-07-01T03:41:44;26.90;63.30
23564;DHT22;11960;45.444;11.078;2022-07-01T03:43:47;26.90;63.30
23564;DHT22;11960;45.444;11.078;2022-07-01T03:45:50;27.00;63.20
23564;DHT22;11960;45.444;11.078;2022-07-01T03:47:52;27.00;63.00
23564;DHT22;11960;45.444;11.078;2022-07-01T03:49:55;27.00;63.10
23564;DHT22;11960;45.444;11.078;2022-07-01T03:51:57;27.00;62.70
23564;DHT22;11960;45.444;11.078;2022-07-01T03:54:00;27.00;62.80
23564;DHT22;11960;45.444;11.078;2022-07-01T03:56:21;27.00;65.50
23564;DHT22;11960;45.444;11.078;2022-07-01T03:58:24;26.80;66.90
23564;DHT22;11960;45.444;11.078;2022-07-01T04:00:27;26.80;68.10
23564;DHT22;11960;45.444;11.078;2022-07-01T04:02:30;26.80;68.90
23564;DHT22;11960;45.444;11.078;2022-07-01T04:04:35;26.80;68.90
23564;DHT22;11960;45.444;11.078;2022-07-01T04:06:38;26.80;68.90
23564;DHT22;11960;45.444;11.078;2022-07-01T04:08:41;26.80;68.90
23564;DHT22;11960;45.444;11.078;2022-07-01T04:10:44;26.80;69.60
23564;DHT22;11960;45.444;11.078;2022-07-01T04:12:47;26.80;69.70
23564;DHT22;11960;45.444;11.078;2022-07-01T04:14:59;26.80;70.20
23564;DHT22;11960;45.444;11.078;2022-07-01T04:17:02;26.80;70.20
23564;DHT22;11960;45.444;11.078;2022-07-01T04:19:24;26.80;70.10
23564;DHT22;11960;45.444;11.078;2022-07-01T04:21:27;26.80;70.40
23564;DHT22;11960;45.444;11.078;2022-07-01T04:23:48;26.80;70.40
23564;DHT22;11960;45.444;11.078;2022-07-01T04:25:51;26.80;70.90
23564;DHT22;11960;45.444;11.078;2022-07-01T04:27:53;26.70;71.00
23564;DHT22;11960;45.444;11.078;2022-07-01T04:29:56;26.70;71.20
23564;DHT22;11960;45.444;11.078;2022-07-01T04:31:59;26.70;71.50
23564;DHT22;11960;45.444;11.078;2022-07-01T04:34:02;26.70;71.60
23564;DHT22;11960;45.444;11.078;2022-07-01T04:36:05;26.70;71.60
23564;DHT22;11960;45.444;11.078;2022-07-01T04:38:07;26.70;72.20
23564;DHT22;11960;45.444;11.078;2022-07-01T04:40:15;26.70;71.90
23564;DHT22;11960;45.444;11.078;2022-07-01T04:42:17;26.70;72.00
23564;DHT22;11960;45.444;11.078;2022-07-01T04:44:23;26.70;72.50
23564;DHT22;11960;45.444;11.078;2022-07-01T04:46:26;26.70;73.00
23564;DHT22;11960;45.444;11.078;2022-07-01T04:48:29;26.70;73.20
23564;DHT22;11960;45.444;11.078;2022-07-01T04:50:31;26.70;73.50
23564;DHT22;11960;45.444;11.078;2022-07-01T04:52:34;26.70;73.80
23564;DHT22;11960;45.444;11.078;2022-07-01T04:54:37;26.70;73.40
23564;DHT22;11960;45.444;11.078;2022-07-01T04:56:40;26.60;73.40
23564;DHT22;11960;45.444;11.078;2022-07-01T04:58:46;26.60;73.50
23564;DHT22;11960;45.444;11.078;2022-07-01T05:00:48;26.60;74.40
23564;DHT22;11960;45.444;11.078;2022-07-01T05:02:51;26.60;75.30
23564;DHT22;11960;45.444;11.078;2022-07-01T05:04:56;26.60;75.30
23564;DHT22;11960;45.444;11.078;2022-07-01T05:07:00;26.60;75.60
23564;DHT22;11960;45.444;11.078;2022-07-01T05:09:02;26.60;75.70
23564;DHT22;11960;45.444;11.078;2022-07-01T05:11:05;26.70;75.90
23564;DHT22;11960;45.444;11.078;2022-07-01T05:13:08;26.70;76.10
23564;DHT22;11960;45.444;11.078;2022-07-01T05:15:11;26.70;75.90
23564;DHT22;11960;45.444;11.078;2022-07-01T05:17:13;26.70;76.00
23564;DHT22;11960;45.444;11.078;2022-07-01T05:19:16;26.80;76.20
23564;DHT22;11960;45.444;11.078;2022-07-01T05:21:37;26.80;76.50
23564;DHT22;11960;45.444;11.078;2022-07-01T05:23:58;26.80;76.80
23564;DHT22;11960;45.444;11.078;2022-07-01T05:26:02;26.80;76.20
23564;DHT22;11960;45.444;11.078;2022-07-01T05:28:04;26.80;75.90
23564;DHT22;11960;45.444;11.078;2022-07-01T05:30:07;26.80;75.50
23564;DHT22;11960;45.444;11.078;2022-07-01T05:32:09;26.80;75.20
23564;DHT22;11960;45.444;11.078;2022-07-01T05:34:12;26.80;75.30
23564;DHT22;11960;45.444;11.078;2022-07-01T05:36:15;26.80;75.50
23564;DHT22;11960;45.444;11.078;2022-07-01T05:38:18;26.80;75.70
23564;DHT22;11960;45.444;11.078;2022-07-01T05:40:21;26.90;76.00
23564;DHT22;11960;45.444;11.078;2022-07-01T05:42:23;26.90;76.20
23564;DHT22;11960;45.444;11.078;2022-07-01T05:44:26;26.90;76.30
23564;DHT22;11960;45.444;11.078;2022-07-01T05:46:28;26.90;76.00
23564;DHT22;11960;45.444;11.078;2022-07-01T05:48:31;26.90;75.70
23564;DHT22;11960;45.444;11.078;2022-07-01T05:50:33;27.00;76.20
23564;DHT22;11960;45.444;11.078;2022-07-01T05:52:36;27.00;75.60
23564;DHT22;11960;45.444;11.078;2022-07-01T05:54:39;27.00;75.40
23564;DHT22;11960;45.444;11.078;2022-07-01T05:56:42;27.10;75.50
23564;DHT22;11960;45.444;11.078;2022-07-01T05:58:45;27.20;75.50
23564;DHT22;11960;45.444;11.078;2022-07-01T06:00:47;27.20;75.20
23564;DHT22;11960;45.444;11.078;2022-07-01T06:02:50;27.20;75.10
23564;DHT22;11960;45.444;11.078;2022-07-01T06:04:56;27.30;75.10
23564;DHT22;11960;45.444;11.078;2022-07-01T06:06:58;27.30;75.00
23564;DHT22;11960;45.444;11.078;2022-07-01T06:09:01;27.30;74.50
23564;DHT22;11960;45.444;11.078;2022-07-01T06:11:03;27.40;74.40
23564;DHT22;11960;45.444;11.078;2022-07-01T06:13:06;27.40;74.10
23564;DHT22;11960;45.444;11.078;2022-07-01T06:15:11;27.40;74.00
23564;DHT22;11960;45.444;11.078;2022-07-01T06:17:15;27.40;73.50
23564;DHT22;11960;45.444;11.078;2022-07-01T06:19:18;27.50;74.50
23564;DHT22;11960;45.444;11.078;2022-07-01T06:21:21;27.50;73.80
23564;DHT22;11960;45.444;11.078;2022-07-01T06:23:24;27.60;74.70
23564;DHT22;11960;45.444;11.078;2022-07-01T06:25:28;27.60;74.60
23564;DHT22;11960;45.444;11.078;2022-07-01T06:27:30;27.60;74.80
23564;DHT22;11960;45.444;11.078;2022-07-01T06:29:39;27.60;73.80
23564;DHT22;11960;45.444;11.078;2022-07-01T06:31:44;27.70;73.80
23564;DHT22;11960;45.444;11.078;2022-07-01T06:33:49;27.70;73.70
23564;DHT22;11960;45.444;11.078;2022-07-01T06:35:52;27.70;73.70
23564;DHT22;11960;45.444;11.078;2022-07-01T06:37:55;27.80;74.00
23564;DHT22;11960;45.444;11.078;2022-07-01T06:40:06;27.80;74.10
23564;DHT22;11960;45.444;11.078;2022-07-01T06:42:12;27.80;73.50
23564;DHT22;11960;45.444;11.078;2022-07-01T06:44:17;27.80;72.50
23564;DHT22;11960;45.444;11.078;2022-07-01T06:46:20;27.90;72.80
23564;DHT22;11960;45.444;11.078;2022-07-01T06:48:23;27.90;72.90
23564;DHT22;11960;45.444;11.078;2022-07-01T06:50:25;28.00;73.40
23564;DHT22;11960;45.444;11.078;2022-07-01T06:52:28;27.90;72.20
23564;DHT22;11960;45.444;11.078;2022-07-01T06:54:30;28.00;72.60
23564;DHT22;11960;45.444;11.078;2022-07-01T06:56:33;28.00;73.20
23564;DHT22;11960;45.444;11.078;2022-07-01T06:58:35;28.10;73.60
23564;DHT22;11960;45.444;11.078;2022-07-01T07:00:38;28.10;74.70
23564;DHT22;11960;45.444;11.078;2022-07-01T07:02:40;28.10;75.80
23564;DHT22;11960;45.444;11.078;2022-07-01T07:04:43;28.10;76.40
23564;DHT22;11960;45.444;11.078;2022-07-01T07:07:04;28.20;76.20
23564;DHT22;11960;45.444;11.078;2022-07-01T07:09:06;28.20;75.90
23564;DHT22;11960;45.444;11.078;2022-07-01T07:11:09;28.30;75.30
23564;DHT22;11960;45.444;11.078;2022-07-01T07:13:11;28.20;74.60
23564;DHT22;11960;45.444;11.078;2022-07-01T07:15:14;28.30;75.20
23564;DHT22;11960;45.444;11.078;2022-07-01T07:17:18;28.30;75.40
23564;DHT22;11960;45.444;11.078;2022-07-01T07:19:20;28.30;75.50
23564;DHT22;11960;45.444;11.078;2022-07-01T07:21:23;28.30;75.10
23564;DHT22;11960;45.444;11.078;2022-07-01T07:23:29;28.40;74.70
23564;DHT22;11960;45.444;11.078;2022-07-01T07:25:37;28.40;75.00
23564;DHT22;11960;45.444;11.078;2022-07-01T07:27:40;28.40;74.40
23564;DHT22;11960;45.444;11.078;2022-07-01T07:29:42;28.40;74.20
23564;DHT22;11960;45.444;11.078;2022-07-01T07:31:45;28.50;73.60
23564;DHT22;11960;45.444;11.078;2022-07-01T07:33:48;28.50;73.80
23564;DHT22;11960;45.444;11.078;2022-07-01T07:35:50;28.50;72.90
23564;DHT22;11960;45.444;11.078;2022-07-01T07:37:53;28.60;71.90
23564;DHT22;11960;45.444;11.078;2022-07-01T07:39:59;28.60;71.70
23564;DHT22;11960;45.444;11.078;2022-07-01T07:42:03;28.70;70.30
23564;DHT22;11960;45.444;11.078;2022-07-01T07:44:08;28.70;69.90
23564;DHT22;11960;45.444;11.078;2022-07-01T07:46:11;28.70;69.90
23564;DHT22;11960;45.444;11.078;2022-07-01T07:48:14;28.80;70.30
23564;DHT22;11960;45.444;11.078;2022-07-01T07:50:17;28.80;70.30
23564;DHT22;11960;45.444;11.078;2022-07-01T07:52:20;28.80;68.30
23564;DHT22;11960;45.444;11.078;2022-07-01T07:54:29;28.90;67.30
23564;DHT22;11960;45.444;11.078;2022-07-01T07:56:32;28.90;67.00
23564;DHT22;11960;45.444;11.078;2022-07-01T07:58:34;28.90;66.90
23564;DHT22;11960;45.444;11.078;2022-07-01T08:00:37;29.00;66.30
23564;DHT22;11960;45.444;11.078;2022-07-01T08:02:42;29.00;64.80
23564;DHT22;11960;45.444;11.078;2022-07-01T08:04:45;29.00;63.80
23564;DHT22;11960;45.444;11.078;2022-07-01T08:06:53;29.10;64.20
23564;DHT22;11960;45.444;11.078;2022-07-01T08:08:56;29.10;64.80
23564;DHT22;11960;45.444;11.078;2022-07-01T08:11:01;29.10;63.90
23564;DHT22;11960;45.444;11.078;2022-07-01T08:13:04;29.20;64.10
23564;DHT22;11960;45.444;11.078;2022-07-01T08:15:09;29.20;63.90
23564;DHT22;11960;45.444;11.078;2022-07-01T08:17:12;29.30;64.50
23564;DHT22;11960;45.444;11.078;2022-07-01T08:19:15;29.30;64.40
23564;DHT22;11960;45.444;11.078;2022-07-01T08:21:17;29.30;64.50
23564;DHT22;11960;45.444;11.078;2022-07-01T08:23:20;29.40;65.80
23564;DHT22;11960;45.444;11.078;2022-07-01T08:25:26;29.40;64.90
23564;DHT22;11960;45.444;11.078;2022-07-01T08:27:36;29.50;64.60
23564;DHT22;11960;45.444;11.078;2022-07-01T08:29:41;29.50;64.10
23564;DHT22;11960;45.444;11.078;2022-07-01T08:31:43;29.60;64.20
23564;DHT22;11960;45.444;11.078;2022-07-01T08:33:46;29.60;64.30
23564;DHT22;11960;45.444;11.078;2022-07-01T08:35:48;29.70;64.30
23564;DHT22;11960;45.444;11.078;2022-07-01T08:37:51;29.70;64.60
23564;DHT22;11960;45.444;11.078;2022-07-01T08:39:53;29.80;64.20
23564;DHT22;11960;45.444;11.078;2022-07-01T08:41:56;29.90;63.80
23564;DHT22;11960;45.444;11.078;2022-07-01T08:44:00;30.00;62.80
23564;DHT22;11960;45.444;11.078;2022-07-01T08:46:02;30.00;63.00
23564;DHT22;11960;45.444;11.078;2022-07-01T08:48:05;30.10;62.40
23564;DHT22;11960;45.444;11.078;2022-07-01T08:50:08;30.20;62.30
23564;DHT22;11960;45.444;11.078;2022-07-01T08:52:11;30.30;62.40
23564;DHT22;11960;45.444;11.078;2022-07-01T08:54:13;30.30;61.60
23564;DHT22;11960;45.444;11.078;2022-07-01T08:56:16;30.40;60.70
23564;DHT22;11960;45.444;11.078;2022-07-01T08:58:37;30.50;62.00
23564;DHT22;11960;45.444;11.078;2022-07-01T09:00:39;30.60;61.60
23564;DHT22;11960;45.444;11.078;2022-07-01T09:05:04;30.70;61.60
23564;DHT22;11960;45.444;11.078;2022-07-01T09:07:09;30.80;61.70
23564;DHT22;11960;45.444;11.078;2022-07-01T09:09:20;30.80;61.30
23564;DHT22;11960;45.444;11.078;2022-07-01T09:11:25;30.90;61.00
23564;DHT22;11960;45.444;11.078;2022-07-01T09:13:27;30.90;61.30
23564;DHT22;11960;45.444;11.078;2022-07-01T09:15:31;31.00;61.10
23564;DHT22;11960;45.444;11.078;2022-07-01T09:17:38;31.00;61.40
23564;DHT22;11960;45.444;11.078;2022-07-01T09:19:41;31.00;60.80
23564;DHT22;11960;45.444;11.078;2022-07-01T09:21:53;31.00;61.30
23564;DHT22;11960;45.444;11.078;2022-07-01T09:24:02;31.00;61.20
23564;DHT22;11960;45.444;11.078;2022-07-01T09:26:05;31.00;59.90
23564;DHT22;11960;45.444;11.078;2022-07-01T09:28:13;31.00;59.50
23564;DHT22;11960;45.444;11.078;2022-07-01T09:30:16;31.00;59.80
23564;DHT22;11960;45.444;11.078;2022-07-01T09:32:21;31.00;59.90
23564;DHT22;11960;45.444;11.078;2022-07-01T09:34:24;31.00;60.40
23564;DHT22;11960;45.444;11.078;2022-07-01T09:36:26;31.00;59.90
23564;DHT22;11960;45.444;11.078;2022-07-01T09:38:29;31.00;60.70
23564;DHT22;11960;45.444;11.078;2022-07-01T09:41:00;31.00;60.60
23564;DHT22;11960;45.444;11.078;2022-07-01T09:43:03;30.90;59.90
23564;DHT22;11960;45.444;11.078;2022-07-01T09:45:07;30.90;59.20
23564;DHT22;11960;45.444;11.078;2022-07-01T09:47:12;30.90;59.30
23564;DHT22;11960;45.444;11.078;2022-07-01T09:49:14;30.90;59.40
23564;DHT22;11960;45.444;11.078;2022-07-01T09:51:17;30.90;59.20
23564;DHT22;11960;45.444;11.078;2022-07-01T09:53:20;30.90;60.30
23564;DHT22;11960;45.444;11.078;2022-07-01T09:55:23;31.00;61.00
23564;DHT22;11960;45.444;11.078;2022-07-01T09:57:26;31.10;60.30
23564;DHT22;11960;45.444;11.078;2022-07-01T09:59:28;31.20;59.30
23564;DHT22;11960;45.444;11.078;2022-07-01T10:01:32;31.20;59.60
23564;DHT22;11960;45.444;11.078;2022-07-01T10:03:37;31.30;59.60
23564;DHT22;11960;45.444;11.078;2022-07-01T10:05:57;31.40;59.20
23564;DHT22;11960;45.444;11.078;2022-07-01T10:13:23;31.60;58.10
23564;DHT22;11960;45.444;11.078;2022-07-01T10:15:27;31.70;58.40
23564;DHT22;11960;45.444;11.078;2022-07-01T10:17:32;31.70;57.50
23564;DHT22;11960;45.444;11.078;2022-07-01T10:19:36;31.80;57.40
23564;DHT22;11960;45.444;11.078;2022-07-01T10:21:39;31.90;57.00
23564;DHT22;11960;45.444;11.078;2022-07-01T10:23:43;31.90;56.80
23564;DHT22;11960;45.444;11.078;2022-07-01T10:25:47;32.00;56.40
23564;DHT22;11960;45.444;11.078;2022-07-01T10:30:31;32.10;55.00
23564;DHT22;11960;45.444;11.078;2022-07-01T10:32:42;32.10;55.00
23564;DHT22;11960;45.444;11.078;2022-07-01T10:35:06;32.20;54.80
23564;DHT22;11960;45.444;11.078;2022-07-01T10:37:12;32.20;55.70
23564;DHT22;11960;45.444;11.078;2022-07-01T10:39:16;32.30;54.90
23564;DHT22;11960;45.444;11.078;2022-07-01T10:41:27;32.30;55.30
23564;DHT22;11960;45.444;11.078;2022-07-01T10:43:33;32.40;55.10
23564;DHT22;11960;45.444;11.078;2022-07-01T10:45:43;32.50;54.20
23564;DHT22;11960;45.444;11.078;2022-07-01T10:47:46;32.50;53.50
23564;DHT22;11960;45.444;11.078;2022-07-01T10:50:15;32.50;53.90
23564;DHT22;11960;45.444;11.078;2022-07-01T10:52:26;32.40;52.30
23564;DHT22;11960;45.444;11.078;2022-07-01T10:56:45;32.40;53.10
23564;DHT22;11960;45.444;11.078;2022-07-01T10:58:47;32.30;52.90
23564;DHT22;11960;45.444;11.078;2022-07-01T11:01:05;32.30;52.80
23564;DHT22;11960;45.444;11.078;2022-07-01T11:05:18;32.40;52.70
23564;DHT22;11960;45.444;11.078;2022-07-01T11:07:24;32.50;52.50
23564;DHT22;11960;45.444;11.078;2022-07-01T11:09:27;32.50;52.20
23564;DHT22;11960;45.444;11.078;2022-07-01T11:11:56;32.60;51.20
23564;DHT22;11960;45.444;11.078;2022-07-01T11:16:24;32.70;51.80
23564;DHT22;11960;45.444;11.078;2022-07-01T11:18:27;32.80;50.50
23564;DHT22;11960;45.444;11.078;2022-07-01T11:20:31;32.80;50.60
23564;DHT22;11960;45.444;11.078;2022-07-01T11:22:35;32.90;48.30
23564;DHT22;11960;45.444;11.078;2022-07-01T11:24:37;33.00;48.50
23564;DHT22;11960;45.444;11.078;2022-07-01T11:26:40;33.10;48.80
23564;DHT22;11960;45.444;11.078;2022-07-01T11:28:43;33.10;48.50
23564;DHT22;11960;45.444;11.078;2022-07-01T11:30:45;33.20;49.60
23564;DHT22;11960;45.444;11.078;2022-07-01T11:32:51;33.20;50.10
23564;DHT22;11960;45.444;11.078;2022-07-01T11:34:57;33.40;50.50
23564;DHT22;11960;45.444;11.078;2022-07-01T11:37:09;33.40;49.90
23564;DHT22;11960;45.444;11.078;2022-07-01T11:39:32;33.50;48.40
23564;DHT22;11960;45.444;11.078;2022-07-01T11:41:38;33.60;47.80
23564;DHT22;11960;45.444;11.078;2022-07-01T11:43:41;33.70;47.60
23564;DHT22;11960;45.444;11.078;2022-07-01T11:45:44;33.70;48.20
23564;DHT22;11960;45.444;11.078;2022-07-01T11:47:46;33.80;48.10
23564;DHT22;11960;45.444;11.078;2022-07-01T11:49:49;33.80;48.30
23564;DHT22;11960;45.444;11.078;2022-07-01T11:52:00;33.90;48.50
23564;DHT22;11960;45.444;11.078;2022-07-01T11:54:03;34.00;49.10
23564;DHT22;11960;45.444;11.078;2022-07-01T11:56:06;34.00;48.90
23564;DHT22;11960;45.444;11.078;2022-07-01T11:58:10;34.00;48.60
23564;DHT22;11960;45.444;11.078;2022-07-01T12:00:13;34.00;48.30
23564;DHT22;11960;45.444;11.078;2022-07-01T12:02:23;34.00;47.80
23564;DHT22;11960;45.444;11.078;2022-07-01T12:04:26;34.00;47.90
23564;DHT22;11960;45.444;11.078;2022-07-01T12:06:30;34.00;47.50
23564;DHT22;11960;45.444;11.078;2022-07-01T12:08:33;34.00;47.90
23564;DHT22;11960;45.444;11.078;2022-07-01T12:10:36;33.90;47.10
23564;DHT22;11960;45.444;11.078;2022-07-01T12:12:38;33.90;47.50
23564;DHT22;11960;45.444;11.078;2022-07-01T12:14:53;33.90;48.00
23564;DHT22;11960;45.444;11.078;2022-07-01T12:16:58;33.90;48.00
23564;DHT22;11960;45.444;11.078;2022-07-01T12:19:02;33.90;47.40
23564;DHT22;11960;45.444;11.078;2022-07-01T12:21:04;33.90;46.80
23564;DHT22;11960;45.444;11.078;2022-07-01T12:23:14;34.00;46.10
23564;DHT22;11960;45.444;11.078;2022-07-01T12:25:16;33.90;45.40
23564;DHT22;11960;45.444;11.078;2022-07-01T12:27:22;33.90;45.40
23564;DHT22;11960;45.444;11.078;2022-07-01T12:29:26;33.90;46.60
23564;DHT22;11960;45.444;11.078;2022-07-01T12:31:29;34.00;46.30
23564;DHT22;11960;45.444;11.078;2022-07-01T12:33:38;34.00;46.80
23564;DHT22;11960;45.444;11.078;2022-07-01T12:35:45;34.10;47.00
23564;DHT22;11960;45.444;11.078;2022-07-01T12:37:48;34.20;45.50
23564;DHT22;11960;45.444;11.078;2022-07-01T12:39:52;34.20;44.80
23564;DHT22;11960;45.444;11.078;2022-07-01T12:41:57;34.20;44.60
23564;DHT22;11960;45.444;11.078;2022-07-01T12:44:23;34.20;44.80
23564;DHT22;11960;45.444;11.078;2022-07-01T12:46:28;34.20;45.10
23564;DHT22;11960;45.444;11.078;2022-07-01T12:48:47;34.20;44.70
23564;DHT22;11960;45.444;11.078;2022-07-01T12:50:57;34.10;44.40
23564;DHT22;11960;45.444;11.078;2022-07-01T12:53:12;34.10;43.80
23564;DHT22;11960;45.444;11.078;2022-07-01T12:55:20;34.20;42.90
23564;DHT22;11960;45.444;11.078;2022-07-01T12:57:33;34.30;43.70
23564;DHT22;11960;45.444;11.078;2022-07-01T12:59:40;34.50;44.80
23564;DHT22;11960;45.444;11.078;2022-07-01T13:01:44;34.60;43.60
23564;DHT22;11960;45.444;11.078;2022-07-01T13:03:47;34.60;42.60
23564;DHT22;11960;45.444;11.078;2022-07-01T13:05:52;34.70;41.00
23564;DHT22;11960;45.444;11.078;2022-07-01T13:07:55;34.90;41.90
23564;DHT22;11960;45.444;11.078;2022-07-01T13:09:58;35.00;42.90
23564;DHT22;11960;45.444;11.078;2022-07-01T13:12:00;35.10;43.50
23564;DHT22;11960;45.444;11.078;2022-07-01T13:14:03;35.20;43.90